sensor_id;sensor_type;location;lat;lon;timestamp;temperature;humidity
11818;DHT22;5966;52.402;5.322;2023-09-19T00:01:24;14.90;99.90
11818;DHT22;5966;52.402;5.322;2023-09-19T00:03:55;14.90;99.90
11818;DHT22;5966;52.402;5.322;2023-09-19T00:06:37;14.90;99.90
11818;DHT22;5966;52.402;5.322;2023-09-19T00:09:08;14.90;99.90
11818;DHT22;5966;52.402;5.322;2023-09-19T00:11:40;14.80;99.90
11818;DHT22;5966;52.402;5.322;2023-09-19T00:14:08;14.80;99.90
11818;DHT22;5966;52.402;5.322;2023-09-19T00:16:41;14.80;99.90
11818;DHT22;5966;52.402;5.322;2023-09-19T00:19:16;14.80;99.90
11818;DHT22;5966;52.402;5.322;2023-09-19T00:21:47;14.80;99.90
11818;DHT22;5966;52.402;5.322;2023-09-19T00:24:30;14.80;99.90
11818;DHT22;5966;52.402;5.322;2023-09-19T00:27:00;14.80;99.90
11818;DHT22;5966;52.402;5.322;2023-09-19T00:29:30;14.80;99.90
11818;DHT22;5966;52.402;5.322;2023-09-19T00:32:00;14.80;99.90
11818;DHT22;5966;52.402;5.322;2023-09-19T00:34:31;14.80;99.90
11818;DHT22;5966;52.402;5.322;2023-09-19T00:37:01;14.80;99.90
11818;DHT22;5966;52.402;5.322;2023-09-19T00:39:32;14.80;99.90
11818;DHT22;5966;52.402;5.322;2023-09-19T00:42:04;14.90;99.90
11818;DHT22;5966;52.402;5.322;2023-09-19T00:44:34;14.90;99.90
11818;DHT22;5966;52.402;5.322;2023-09-19T00:47:18;14.90;99.90
11818;DHT22;5966;52.402;5.322;2023-09-19T00:49:53;14.90;99.90
11818;DHT22;5966;52.402;5.322;2023-09-19T00:52:36;14.80;99.90
11818;DHT22;5966;52.402;5.322;2023-09-19T00:55:15;14.90;99.90
11818;DHT22;5966;52.402;5.322;2023-09-19T00:57:57;14.80;99.90
11818;DHT22;5966;52.402;5.322;2023-09-19T01:00:26;14.90;99.90
11818;DHT22;5966;52.402;5.322;2023-09-19T01:03:08;14.80;99.90
11818;DHT22;5966;52.402;5.322;2023-09-19T01:05:39;14.80;99.90
11818;DHT22;5966;52.402;5.322;2023-09-19T01:08:09;14.80;99.90
11818;DHT22;5966;52.402;5.322;2023-09-19T01:10:42;14.80;99.90
11818;DHT22;5966;52.402;5.322;2023-09-19T01:13:48;14.80;99.90
11818;DHT22;5966;52.402;5.322;2023-09-19T01:16:29;14.80;99.90
11818;DHT22;5966;52.402;5.322;2023-09-19T01:19:07;14.80;99.90
11818;DHT22;5966;52.402;5.322;2023-09-19T01:21:48;14.80;99.90
11818;DHT22;5966;52.402;5.322;2023-09-19T01:24:53;14.80;99.90
11818;DHT22;5966;52.402;5.322;2023-09-19T01:27:51;14.80;99.90
11818;DHT22;5966;52.402;5.322;2023-09-19T01:30:27;14.80;99.90
11818;DHT22;5966;52.402;5.322;2023-09-19T01:32:58;14.80;99.90
11818;DHT22;5966;52.402;5.322;2023-09-19T01:35:30;14.80;99.90
11818;DHT22;5966;52.402;5.322;2023-09-19T01:38:20;14.80;99.90
11818;DHT22;5966;52.402;5.322;2023-09-19T01:41:02;14.80;99.90
11818;DHT22;5966;52.402;5.322;2023-09-19T01:43:34;14.80;99.90
11818;DHT22;5966;52.402;5.322;2023-09-19T01:46:12;14.80;99.90
11818;DHT22;5966;52.402;5.322;2023-09-19T01:48:52;14.80;99.90
11818;DHT22;5966;52.402;5.322;2023-09-19T01:51:32;14.80;99.90
11818;DHT22;5966;52.402;5.322;2023-09-19T01:54:20;14.70;99.90
11818;DHT22;5966;52.402;5.322;2023-09-19T01:57:27;14.70;99.90
11818;DHT22;5966;52.402;5.322;2023-09-19T02:00:01;14.70;99.90
11818;DHT22;5966;52.402;5.322;2023-09-19T02:02:47;14.70;99.90
11818;DHT22;5966;52.402;5.322;2023-09-19T02:05:48;14.70;99.90
11818;DHT22;5966;52.402;5.322;2023-09-19T02:08:22;14.80;99.90
11818;DHT22;5966;52.402;5.322;2023-09-19T02:10:52;14.80;99.90
11818;DHT22;5966;52.402;5.322;2023-09-19T02:13:21;14.80;99.90
11818;DHT22;5966;52.402;5.322;2023-09-19T02:15:51;14.80;99.90
11818;DHT22;5966;52.402;5.322;2023-09-19T02:22:22;14.80;99.90
11818;DHT22;5966;52.402;5.322;2023-09-19T02:24:51;14.80;99.90
11818;DHT22;5966;52.402;5.322;2023-09-19T02:27:47;14.80;99.90
11818;DHT22;5966;52.402;5.322;2023-09-19T02:30:43;14.90;99.90
11818;DHT22;5966;52.402;5.322;2023-09-19T02:33:39;14.90;99.90
11818;DHT22;5966;52.402;5.322;2023-09-19T02:36:09;15.00;99.90
11818;DHT22;5966;52.402;5.322;2023-09-19T02:38:39;15.00;99.90
11818;DHT22;5966;52.402;5.322;2023-09-19T02:41:07;15.00;99.90
11818;DHT22;5966;52.402;5.322;2023-09-19T02:43:38;15.00;99.90
11818;DHT22;5966;52.402;5.322;2023-09-19T02:46:06;15.00;99.90
11818;DHT22;5966;52.402;5.322;2023-09-19T02:48:34;15.00;99.90
11818;DHT22;5966;52.402;5.322;2023-09-19T02:51:03;15.00;99.90
11818;DHT22;5966;52.402;5.322;2023-09-19T02:53:31;15.00;99.90
11818;DHT22;5966;52.402;5.322;2023-09-19T02:56:02;15.00;99.90
11818;DHT22;5966;52.402;5.322;2023-09-19T02:58:30;14.90;99.90
11818;DHT22;5966;52.402;5.322;2023-09-19T03:01:12;14.90;99.90
11818;DHT22;5966;52.402;5.322;2023-09-19T03:03:42;14.90;99.90
11818;DHT22;5966;52.402;5.322;2023-09-19T03:06:10;14.90;99.90
11818;DHT22;5966;52.402;5.322;2023-09-19T03:08:42;14.90;99.90
11818;DHT22;5966;52.402;5.322;2023-09-19T03:11:12;14.90;99.90
11818;DHT22;5966;52.402;5.322;2023-09-19T03:13:41;14.90;99.90
11818;DHT22;5966;52.402;5.322;2023-09-19T03:21:30;14.90;99.90
11818;DHT22;5966;52.402;5.322;2023-09-19T03:23:58;14.90;99.90
11818;DHT22;5966;52.402;5.322;2023-09-19T03:26:28;14.90;99.90
11818;DHT22;5966;52.402;5.322;2023-09-19T03:32:43;14.90;99.90
11818;DHT22;5966;52.402;5.322;2023-09-19T03:38:11;14.90;99.90
11818;DHT22;5966;52.402;5.322;2023-09-19T03:40:40;14.90;99.90
11818;DHT22;5966;52.402;5.322;2023-09-19T03:43:10;14.90;99.90
11818;DHT22;5966;52.402;5.322;2023-09-19T03:45:43;14.90;99.90
11818;DHT22;5966;52.402;5.322;2023-09-19T03:48:14;14.90;99.90
11818;DHT22;5966;52.402;5.322;2023-09-19T03:51:06;14.90;99.90
11818;DHT22;5966;52.402;5.322;2023-09-19T03:53:34;14.90;99.90
11818;DHT22;5966;52.402;5.322;2023-09-19T03:56:18;14.90;99.90
11818;DHT22;5966;52.402;5.322;2023-09-19T03:58:49;14.90;99.90
11818;DHT22;5966;52.402;5.322;2023-09-19T04:01:17;14.90;99.90
11818;DHT22;5966;52.402;5.322;2023-09-19T04:03:45;14.90;99.90
11818;DHT22;5966;52.402;5.322;2023-09-19T04:06:15;14.90;99.90
11818;DHT22;5966;52.402;5.322;2023-09-19T04:08:43;14.80;99.90
11818;DHT22;5966;52.402;5.322;2023-09-19T04:11:13;14.80;99.90
11818;DHT22;5966;52.402;5.322;2023-09-19T04:13:41;14.80;99.90
11818;DHT22;5966;52.402;5.322;2023-09-19T04:16:11;14.80;99.90
11818;DHT22;5966;52.402;5.322;2023-09-19T04:18:40;14.80;99.90
11818;DHT22;5966;52.402;5.322;2023-09-19T04:21:14;14.70;99.90
11818;DHT22;5966;52.402;5.322;2023-09-19T04:23:43;14.70;99.90
11818;DHT22;5966;52.402;5.322;2023-09-19T04:26:11;14.80;99.90
11818;DHT22;5966;52.402;5.322;2023-09-19T04:28:52;14.70;99.90
11818;DHT22;5966;52.402;5.322;2023-09-19T04:31:21;14.70;99.90
11818;DHT22;5966;52.402;5.322;2023-09-19T04:33:50;14.70;99.90
11818;DHT22;5966;52.402;5.322;2023-09-19T04:36:18;14.70;99.90
11818;DHT22;5966;52.402;5.322;2023-09-19T04:39:01;14.70;99.90
11818;DHT22;5966;52.402;5.322;2023-09-19T04:41:31;14.70;99.90
11818;DHT22;5966;52.402;5.322;2023-09-19T04:44:00;14.70;99.90
11818;DHT22;5966;52.402;5.322;2023-09-19T04:46:30;14.70;99.90
11818;DHT22;5966;52.402;5.322;2023-09-19T04:48:59;14.80;99.90
11818;DHT22;5966;52.402;5.322;2023-09-19T04:51:27;14.80;99.90
11818;DHT22;5966;52.402;5.322;2023-09-19T04:53:59;14.70;99.90
11818;DHT22;5966;52.402;5.322;2023-09-19T04:56:27;14.80;99.90
11818;DHT22;5966;52.402;5.322;2023-09-19T04:58:56;14.80;99.90
11818;DHT22;5966;52.402;5.322;2023-09-19T05:01:27;14.80;99.90
11818;DHT22;5966;52.402;5.322;2023-09-19T05:03:57;14.80;99.90
11818;DHT22;5966;52.402;5.322;2023-09-19T05:06:25;14.80;99.90
11818;DHT22;5966;52.402;5.322;2023-09-19T05:08:54;14.80;99.90
11818;DHT22;5966;52.402;5.322;2023-09-19T05:11:22;14.80;99.90
11818;DHT22;5966;52.402;5.322;2023-09-19T05:13:51;14.80;99.90
11818;DHT22;5966;52.402;5.322;2023-09-19T05:16:20;14.80;99.90
11818;DHT22;5966;52.402;5.322;2023-09-19T05:18:49;14.80;99.90
11818;DHT22;5966;52.402;5.322;2023-09-19T05:21:20;14.80;99.90
11818;DHT22;5966;52.402;5.322;2023-09-19T05:23:52;14.80;99.90
11818;DHT22;5966;52.402;5.322;2023-09-19T05:26:21;14.80;99.90
11818;DHT22;5966;52.402;5.322;2023-09-19T05:28:50;14.80;99.90
11818;DHT22;5966;52.402;5.322;2023-09-19T05:31:20;14.70;99.90
11818;DHT22;5966;52.402;5.322;2023-09-19T05:33:50;14.70;99.90
11818;DHT22;5966;52.402;5.322;2023-09-19T05:36:22;14.70;99.90
11818;DHT22;5966;52.402;5.322;2023-09-19T05:38:51;14.70;99.90
11818;DHT22;5966;52.402;5.322;2023-09-19T05:41:33;14.70;99.90
11818;DHT22;5966;52.402;5.322;2023-09-19T05:44:03;14.70;99.90
11818;DHT22;5966;52.402;5.322;2023-09-19T05:46:33;14.70;99.90
11818;DHT22;5966;52.402;5.322;2023-09-19T05:49:02;14.60;99.90
11818;DHT22;5966;52.402;5.322;2023-09-19T05:51:32;14.60;99.90
11818;DHT22;5966;52.402;5.322;2023-09-19T05:54:00;14.70;99.90
11818;DHT22;5966;52.402;5.322;2023-09-19T05:56:28;14.70;99.90
11818;DHT22;5966;52.402;5.322;2023-09-19T05:59:00;14.70;99.90
11818;DHT22;5966;52.402;5.322;2023-09-19T06:01:29;14.70;99.90
11818;DHT22;5966;52.402;5.322;2023-09-19T06:03:59;14.70;99.90
11818;DHT22;5966;52.402;5.322;2023-09-19T06:06:28;14.70;99.90
11818;DHT22;5966;52.402;5.322;2023-09-19T06:08:58;14.70;99.90
11818;DHT22;5966;52.402;5.322;2023-09-19T06:11:27;14.70;99.90
11818;DHT22;5966;52.402;5.322;2023-09-19T06:14:02;14.70;99.90
11818;DHT22;5966;52.402;5.322;2023-09-19T06:16:32;14.60;99.90
11818;DHT22;5966;52.402;5.322;2023-09-19T06:19:04;14.70;99.90
11818;DHT22;5966;52.402;5.322;2023-09-19T06:21:35;14.60;99.90
11818;DHT22;5966;52.402;5.322;2023-09-19T06:24:06;14.70;99.90
11818;DHT22;5966;52.402;5.322;2023-09-19T06:26:34;14.70;99.90
11818;DHT22;5966;52.402;5.322;2023-09-19T06:29:03;14.70;99.90
11818;DHT22;5966;52.402;5.322;2023-09-19T06:31:39;14.80;99.90
11818;DHT22;5966;52.402;5.322;2023-09-19T06:34:17;14.80;99.90
11818;DHT22;5966;52.402;5.322;2023-09-19T06:36:45;14.80;99.90
11818;DHT22;5966;52.402;5.322;2023-09-19T06:39:21;14.90;99.90
11818;DHT22;5966;52.402;5.322;2023-09-19T06:41:55;14.90;99.90
11818;DHT22;5966;52.402;5.322;2023-09-19T06:44:39;15.00;99.90
11818;DHT22;5966;52.402;5.322;2023-09-19T06:47:30;15.00;99.90
11818;DHT22;5966;52.402;5.322;2023-09-19T06:50:05;15.00;99.90
11818;DHT22;5966;52.402;5.322;2023-09-19T06:52:55;15.10;99.90
11818;DHT22;5966;52.402;5.322;2023-09-19T06:55:26;15.10;99.90
11818;DHT22;5966;52.402;5.322;2023-09-19T06:58:00;15.00;99.90
11818;DHT22;5966;52.402;5.322;2023-09-19T07:00:28;15.10;99.90
11818;DHT22;5966;52.402;5.322;2023-09-19T07:02:59;15.10;99.90
11818;DHT22;5966;52.402;5.322;2023-09-19T07:05:32;15.10;99.90
11818;DHT22;5966;52.402;5.322;2023-09-19T07:08:06;15.10;99.90
11818;DHT22;5966;52.402;5.322;2023-09-19T07:10:36;15.20;99.90
11818;DHT22;5966;52.402;5.322;2023-09-19T07:13:05;15.20;99.90
11818;DHT22;5966;52.402;5.322;2023-09-19T07:15:37;15.20;99.90
11818;DHT22;5966;52.402;5.322;2023-09-19T07:18:07;15.20;99.90
11818;DHT22;5966;52.402;5.322;2023-09-19T07:20:38;15.20;99.90
11818;DHT22;5966;52.402;5.322;2023-09-19T07:23:06;15.20;99.90
11818;DHT22;5966;52.402;5.322;2023-09-19T07:25:44;15.30;99.90
11818;DHT22;5966;52.402;5.322;2023-09-19T07:28:18;15.20;99.90
11818;DHT22;5966;52.402;5.322;2023-09-19T07:30:50;15.20;99.90
11818;DHT22;5966;52.402;5.322;2023-09-19T07:33:23;15.30;99.90
11818;DHT22;5966;52.402;5.322;2023-09-19T07:35:53;15.30;99.90
11818;DHT22;5966;52.402;5.322;2023-09-19T07:38:21;15.30;99.90
11818;DHT22;5966;52.402;5.322;2023-09-19T07:41:00;15.40;99.90
11818;DHT22;5966;52.402;5.322;2023-09-19T07:43:33;15.40;99.90
11818;DHT22;5966;52.402;5.322;2023-09-19T07:46:05;15.40;99.90
11818;DHT22;5966;52.402;5.322;2023-09-19T07:48:35;15.30;99.90
11818;DHT22;5966;52.402;5.322;2023-09-19T07:51:09;15.40;99.90
11818;DHT22;5966;52.402;5.322;2023-09-19T07:53:51;15.50;99.90
11818;DHT22;5966;52.402;5.322;2023-09-19T07:56:20;15.50;99.90
11818;DHT22;5966;52.402;5.322;2023-09-19T07:58:49;15.50;99.90
11818;DHT22;5966;52.402;5.322;2023-09-19T08:01:18;15.50;99.90
11818;DHT22;5966;52.402;5.322;2023-09-19T08:03:50;15.60;99.90
11818;DHT22;5966;52.402;5.322;2023-09-19T08:06:18;15.70;99.90
11818;DHT22;5966;52.402;5.322;2023-09-19T08:08:47;15.80;99.90
11818;DHT22;5966;52.402;5.322;2023-09-19T08:11:40;15.90;99.90
11818;DHT22;5966;52.402;5.322;2023-09-19T08:14:08;15.90;99.90
11818;DHT22;5966;52.402;5.322;2023-09-19T08:16:42;16.00;99.90
11818;DHT22;5966;52.402;5.322;2023-09-19T08:19:14;16.10;99.90
11818;DHT22;5966;52.402;5.322;2023-09-19T08:21:42;16.20;99.90
11818;DHT22;5966;52.402;5.322;2023-09-19T08:24:13;16.20;99.90
11818;DHT22;5966;52.402;5.322;2023-09-19T08:26:44;16.30;99.90
11818;DHT22;5966;52.402;5.322;2023-09-19T08:29:13;16.30;99.90
11818;DHT22;5966;52.402;5.322;2023-09-19T08:31:41;16.30;99.90
11818;DHT22;5966;52.402;5.322;2023-09-19T08:34:11;16.30;99.90
11818;DHT22;5966;52.402;5.322;2023-09-19T08:36:40;16.20;99.90
11818;DHT22;5966;52.402;5.322;2023-09-19T08:39:10;16.20;99.90
11818;DHT22;5966;52.402;5.322;2023-09-19T08:41:40;16.30;99.90
11818;DHT22;5966;52.402;5.322;2023-09-19T08:44:11;16.30;99.90
11818;DHT22;5966;52.402;5.322;2023-09-19T08:46:41;16.30;99.90
11818;DHT22;5966;52.402;5.322;2023-09-19T08:51:46;16.40;99.90
11818;DHT22;5966;52.402;5.322;2023-09-19T08:57:59;16.40;99.90
11818;DHT22;5966;52.402;5.322;2023-09-19T09:00:47;16.50;99.90
11818;DHT22;5966;52.402;5.322;2023-09-19T09:05:54;16.60;99.90
11818;DHT22;5966;52.402;5.322;2023-09-19T09:08:26;16.60;99.90
11818;DHT22;5966;52.402;5.322;2023-09-19T09:10:55;16.70;99.90
11818;DHT22;5966;52.402;5.322;2023-09-19T09:13:24;16.70;99.90
11818;DHT22;5966;52.402;5.322;2023-09-19T09:15:54;16.70;99.90
11818;DHT22;5966;52.402;5.322;2023-09-19T09:18:22;16.80;99.90
11818;DHT22;5966;52.402;5.322;2023-09-19T09:20:52;16.80;99.90
11818;DHT22;5966;52.402;5.322;2023-09-19T09:23:28;16.90;99.90
11818;DHT22;5966;52.402;5.322;2023-09-19T09:26:00;16.80;99.90
11818;DHT22;5966;52.402;5.322;2023-09-19T09:28:33;16.80;99.90
11818;DHT22;5966;52.402;5.322;2023-09-19T09:31:05;16.90;99.90
11818;DHT22;5966;52.402;5.322;2023-09-19T09:33:36;16.90;99.90
11818;DHT22;5966;52.402;5.322;2023-09-19T09:36:06;16.90;99.90
11818;DHT22;5966;52.402;5.322;2023-09-19T09:38:43;16.90;99.90
11818;DHT22;5966;52.402;5.322;2023-09-19T09:41:13;17.00;99.90
11818;DHT22;5966;52.402;5.322;2023-09-19T09:43:54;17.00;99.90
11818;DHT22;5966;52.402;5.322;2023-09-19T09:46:28;17.10;99.90
11818;DHT22;5966;52.402;5.322;2023-09-19T09:49:14;17.10;99.90
11818;DHT22;5966;52.402;5.322;2023-09-19T09:51:45;17.10;99.90
11818;DHT22;5966;52.402;5.322;2023-09-19T09:54:17;17.00;99.90
11818;DHT22;5966;52.402;5.322;2023-09-19T09:56:54;16.90;99.90
11818;DHT22;5966;52.402;5.322;2023-09-19T09:59:49;16.90;99.90
11818;DHT22;5966;52.402;5.322;2023-09-19T10:02:30;16.90;99.90
11818;DHT22;5966;52.402;5.322;2023-09-19T10:05:21;16.90;99.90
11818;DHT22;5966;52.402;5.322;2023-09-19T10:07:55;16.90;99.90
11818;DHT22;5966;52.402;5.322;2023-09-19T10:10:32;17.00;99.90
11818;DHT22;5966;52.402;5.322;2023-09-19T10:13:25;17.00;99.90
11818;DHT22;5966;52.402;5.322;2023-09-19T10:16:16;17.00;99.90
11818;DHT22;5966;52.402;5.322;2023-09-19T10:21:20;17.10;99.90
11818;DHT22;5966;52.402;5.322;2023-09-19T10:23:52;17.20;99.90
11818;DHT22;5966;52.402;5.322;2023-09-19T10:26:27;17.20;99.90
11818;DHT22;5966;52.402;5.322;2023-09-19T10:29:18;17.30;99.90
11818;DHT22;5966;52.402;5.322;2023-09-19T10:32:00;17.40;99.90
11818;DHT22;5966;52.402;5.322;2023-09-19T10:34:37;17.40;99.90
11818;DHT22;5966;52.402;5.322;2023-09-19T10:37:16;17.50;99.90
11818;DHT22;5966;52.402;5.322;2023-09-19T10:39:46;17.60;99.90
11818;DHT22;5966;52.402;5.322;2023-09-19T10:42:19;17.60;99.90
11818;DHT22;5966;52.402;5.322;2023-09-19T10:47:33;17.80;99.90
11818;DHT22;5966;52.402;5.322;2023-09-19T10:50:07;17.90;99.90
11818;DHT22;5966;52.402;5.322;2023-09-19T10:52:55;17.90;99.90
11818;DHT22;5966;52.402;5.322;2023-09-19T10:55:36;17.90;99.90
11818;DHT22;5966;52.402;5.322;2023-09-19T10:58:05;17.80;99.90
11818;DHT22;5966;52.402;5.322;2023-09-19T11:00:52;17.80;99.90
11818;DHT22;5966;52.402;5.322;2023-09-19T11:03:22;17.80;99.90
11818;DHT22;5966;52.402;5.322;2023-09-19T11:06:02;17.80;99.90
11818;DHT22;5966;52.402;5.322;2023-09-19T11:08:59;17.90;99.90
11818;DHT22;5966;52.402;5.322;2023-09-19T11:11:46;17.90;99.90
11818;DHT22;5966;52.402;5.322;2023-09-19T11:14:51;17.90;99.90
11818;DHT22;5966;52.402;5.322;2023-09-19T11:17:33;17.90;99.90
11818;DHT22;5966;52.402;5.322;2023-09-19T11:20:30;17.90;99.90
11818;DHT22;5966;52.402;5.322;2023-09-19T11:23:18;17.90;99.90
11818;DHT22;5966;52.402;5.322;2023-09-19T11:25:51;17.90;99.90
11818;DHT22;5966;52.402;5.322;2023-09-19T11:28:32;17.90;99.90
11818;DHT22;5966;52.402;5.322;2023-09-19T11:34:42;18.00;99.90
11818;DHT22;5966;52.402;5.322;2023-09-19T11:43:46;18.20;99.90
11818;DHT22;5966;52.402;5.322;2023-09-19T11:46:18;18.30;99.90
11818;DHT22;5966;52.402;5.322;2023-09-19T11:48:49;18.40;99.90
11818;DHT22;5966;52.402;5.322;2023-09-19T11:51:26;18.40;99.90
11818;DHT22;5966;52.402;5.322;2023-09-19T11:53:56;18.40;99.90
11818;DHT22;5966;52.402;5.322;2023-09-19T11:56:27;18.40;99.90
11818;DHT22;5966;52.402;5.322;2023-09-19T11:58:57;18.30;99.90
11818;DHT22;5966;52.402;5.322;2023-09-19T12:01:30;18.30;99.90
11818;DHT22;5966;52.402;5.322;2023-09-19T12:04:02;18.30;99.90
11818;DHT22;5966;52.402;5.322;2023-09-19T12:06:32;18.30;99.90
11818;DHT22;5966;52.402;5.322;2023-09-19T12:09:03;18.20;99.90
11818;DHT22;5966;52.402;5.322;2023-09-19T12:11:42;18.20;99.90
11818;DHT22;5966;52.402;5.322;2023-09-19T12:14:21;18.20;99.90
11818;DHT22;5966;52.402;5.322;2023-09-19T12:16:54;18.10;99.90
11818;DHT22;5966;52.402;5.322;2023-09-19T12:19:23;18.20;99.90
11818;DHT22;5966;52.402;5.322;2023-09-19T12:22:04;18.10;99.90
11818;DHT22;5966;52.402;5.322;2023-09-19T12:24:34;18.10;99.90
11818;DHT22;5966;52.402;5.322;2023-09-19T12:27:07;18.10;99.90
11818;DHT22;5966;52.402;5.322;2023-09-19T12:29:53;18.10;99.90
11818;DHT22;5966;52.402;5.322;2023-09-19T12:33:18;18.10;99.90
11818;DHT22;5966;52.402;5.322;2023-09-19T12:35:52;18.10;99.90
11818;DHT22;5966;52.402;5.322;2023-09-19T12:38:24;18.00;99.90
11818;DHT22;5966;52.402;5.322;2023-09-19T12:41:09;18.00;99.90
11818;DHT22;5966;52.402;5.322;2023-09-19T12:43:40;18.00;99.90
11818;DHT22;5966;52.402;5.322;2023-09-19T12:50:09;18.00;99.90
11818;DHT22;5966;52.402;5.322;2023-09-19T12:52:51;18.10;99.90
11818;DHT22;5966;52.402;5.322;2023-09-19T12:56:19;18.20;99.90
11818;DHT22;5966;52.402;5.322;2023-09-19T12:59:04;18.30;99.90
11818;DHT22;5966;52.402;5.322;2023-09-19T13:01:37;18.40;99.90
11818;DHT22;5966;52.402;5.322;2023-09-19T13:04:10;18.40;99.90
11818;DHT22;5966;52.402;5.322;2023-09-19T13:07:10;18.50;99.90
11818;DHT22;5966;52.402;5.322;2023-09-19T13:17:13;18.50;99.90
11818;DHT22;5966;52.402;5.322;2023-09-19T13:19:50;18.50;99.90
11818;DHT22;5966;52.402;5.322;2023-09-19T13:22:43;18.50;99.90
11818;DHT22;5966;52.402;5.322;2023-09-19T13:25:56;18.50;99.90
11818;DHT22;5966;52.402;5.322;2023-09-19T13:29:04;18.50;99.90
11818;DHT22;5966;52.402;5.322;2023-09-19T13:32:05;18.60;99.90
11818;DHT22;5966;52.402;5.322;2023-09-19T13:34:40;18.60;99.90
11818;DHT22;5966;52.402;5.322;2023-09-19T13:37:10;18.60;99.90
11818;DHT22;5966;52.402;5.322;2023-09-19T13:49:31;18.50;99.90
11818;DHT22;5966;52.402;5.322;2023-09-19T13:51:59;18.40;99.90
11818;DHT22;5966;52.402;5.322;2023-09-19T13:54:40;18.40;99.90
11818;DHT22;5966;52.402;5.322;2023-09-19T13:57:24;18.30;99.90
11818;DHT22;5966;52.402;5.322;2023-09-19T13:59:53;18.30;99.90
11818;DHT22;5966;52.402;5.322;2023-09-19T14:02:22;18.20;99.90
11818;DHT22;5966;52.402;5.322;2023-09-19T14:04:53;18.20;99.90
11818;DHT22;5966;52.402;5.322;2023-09-19T14:07:26;18.20;99.90
11818;DHT22;5966;52.402;5.322;2023-09-19T14:09:57;18.10;99.90
11818;DHT22;5966;52.402;5.322;2023-09-19T14:12:40;18.10;99.90
11818;DHT22;5966;52.402;5.322;2023-09-19T14:15:17;18.10;99.90
11818;DHT22;5966;52.402;5.322;2023-09-19T14:17:45;18.10;99.90
11818;DHT22;5966;52.402;5.322;2023-09-19T14:20:15;18.10;99.90
11818;DHT22;5966;52.402;5.322;2023-09-19T14:22:43;18.10;99.90
11818;DHT22;5966;52.402;5.322;2023-09-19T14:25:15;18.00;99.90
11818;DHT22;5966;52.402;5.322;2023-09-19T14:27:43;18.10;99.90
11818;DHT22;5966;52.402;5.322;2023-09-19T14:30:13;18.00;99.90
11818;DHT22;5966;52.402;5.322;2023-09-19T14:32:43;18.10;99.90
11818;DHT22;5966;52.402;5.322;2023-09-19T14:35:15;18.10;99.90
11818;DHT22;5966;52.402;5.322;2023-09-19T14:37:48;18.10;99.90
11818;DHT22;5966;52.402;5.322;2023-09-19T14:40:19;18.10;99.90
11818;DHT22;5966;52.402;5.322;2023-09-19T14:43:05;18.10;99.90
11818;DHT22;5966;52.402;5.322;2023-09-19T14:45:36;18.00;99.90
11818;DHT22;5966;52.402;5.322;2023-09-19T14:48:06;17.90;99.90
11818;DHT22;5966;52.402;5.322;2023-09-19T14:50:43;17.90;99.90
11818;DHT22;5966;52.402;5.322;2023-09-19T14:53:21;17.90;99.90
11818;DHT22;5966;52.402;5.322;2023-09-19T14:55:53;17.80;99.90
11818;DHT22;5966;52.402;5.322;2023-09-19T14:58:36;17.80;99.90
11818;DHT22;5966;52.402;5.322;2023-09-19T15:01:09;17.80;99.90
11818;DHT22;5966;52.402;5.322;2023-09-19T15:03:39;17.70;99.90
11818;DHT22;5966;52.402;5.322;2023-09-19T15:06:10;17.60;99.90
11818;DHT22;5966;52.402;5.322;2023-09-19T15:08:41;17.50;99.90
11818;DHT22;5966;52.402;5.322;2023-09-19T15:11:17;17.40;99.90
11818;DHT22;5966;52.402;5.322;2023-09-19T15:13:46;17.30;99.90
11818;DHT22;5966;52.402;5.322;2023-09-19T15:16:23;17.20;99.90
11818;DHT22;5966;52.402;5.322;2023-09-19T15:19:07;17.20;99.90
11818;DHT22;5966;52.402;5.322;2023-09-19T15:21:41;17.20;99.90
11818;DHT22;5966;52.402;5.322;2023-09-19T15:24:14;17.10;99.90
11818;DHT22;5966;52.402;5.322;2023-09-19T15:26:44;17.10;99.90
11818;DHT22;5966;52.402;5.322;2023-09-19T15:29:15;17.10;99.90
11818;DHT22;5966;52.402;5.322;2023-09-19T15:31:45;17.10;99.90
11818;DHT22;5966;52.402;5.322;2023-09-19T15:34:15;17.10;99.90
11818;DHT22;5966;52.402;5.322;2023-09-19T15:36:47;17.10;99.90
11818;DHT22;5966;52.402;5.322;2023-09-19T15:39:16;17.10;99.90
11818;DHT22;5966;52.402;5.322;2023-09-19T15:41:57;17.10;99.90
11818;DHT22;5966;52.402;5.322;2023-09-19T15:44:29;17.10;99.90
11818;DHT22;5966;52.402;5.322;2023-09-19T15:47:01;17.20;99.90
11818;DHT22;5966;52.402;5.322;2023-09-19T15:49:30;17.20;99.90
11818;DHT22;5966;52.402;5.322;2023-09-19T15:52:07;17.20;99.90
11818;DHT22;5966;52.402;5.322;2023-09-19T15:54:42;17.20;99.90
11818;DHT22;5966;52.402;5.322;2023-09-19T15:57:11;17.20;99.90
11818;DHT22;5966;52.402;5.322;2023-09-19T15:59:43;17.30;99.90
11818;DHT22;5966;52.402;5.322;2023-09-19T16:02:15;17.20;99.90
11818;DHT22;5966;52.402;5.322;2023-09-19T16:04:48;17.30;99.90
11818;DHT22;5966;52.402;5.322;2023-09-19T16:07:22;17.30;99.90
11818;DHT22;5966;52.402;5.322;2023-09-19T16:09:53;17.30;99.90
11818;DHT22;5966;52.402;5.322;2023-09-19T16:12:54;17.30;99.90
11818;DHT22;5966;52.402;5.322;2023-09-19T16:15:28;17.30;99.90
11818;DHT22;5966;52.402;5.322;2023-09-19T16:18:12;17.30;99.90
11818;DHT22;5966;52.402;5.322;2023-09-19T16:20:43;17.30;99.90
11818;DHT22;5966;52.402;5.322;2023-09-19T16:23:15;17.40;99.90
11818;DHT22;5966;52.402;5.322;2023-09-19T16:25:45;17.40;99.90
11818;DHT22;5966;52.402;5.322;2023-09-19T16:28:16;17.50;99.90
11818;DHT22;5966;52.402;5.322;2023-09-19T16:30:52;17.50;99.90
11818;DHT22;5966;52.402;5.322;2023-09-19T16:33:26;17.50;99.90
11818;DHT22;5966;52.402;5.322;2023-09-19T16:36:07;17.40;99.90
11818;DHT22;5966;52.402;5.322;2023-09-19T16:38:53;17.50;99.90
11818;DHT22;5966;52.402;5.322;2023-09-19T16:41:23;17.40;99.90
11818;DHT22;5966;52.402;5.322;2023-09-19T16:43:52;17.40;99.90
11818;DHT22;5966;52.402;5.322;2023-09-19T16:46:20;17.40;99.90
11818;DHT22;5966;52.402;5.322;2023-09-19T16:48:51;17.40;99.90
11818;DHT22;5966;52.402;5.322;2023-09-19T16:51:34;17.40;99.90
11818;DHT22;5966;52.402;5.322;2023-09-19T16:54:18;17.40;99.90
11818;DHT22;5966;52.402;5.322;2023-09-19T16:56:55;17.40;99.90
11818;DHT22;5966;52.402;5.322;2023-09-19T16:59:45;17.40;99.90
11818;DHT22;5966;52.402;5.322;2023-09-19T17:02:15;17.40;99.90
11818;DHT22;5966;52.402;5.322;2023-09-19T17:04:46;17.30;99.90
11818;DHT22;5966;52.402;5.322;2023-09-19T17:07:15;17.30;99.90
11818;DHT22;5966;52.402;5.322;2023-09-19T17:09:45;17.30;99.90
11818;DHT22;5966;52.402;5.322;2023-09-19T17:12:14;17.20;99.90
11818;DHT22;5966;52.402;5.322;2023-09-19T17:14:43;17.20;99.90
11818;DHT22;5966;52.402;5.322;2023-09-19T17:17:11;17.20;99.90
11818;DHT22;5966;52.402;5.322;2023-09-19T17:19:39;17.10;99.90
11818;DHT22;5966;52.402;5.322;2023-09-19T17:22:08;17.10;99.90
11818;DHT22;5966;52.402;5.322;2023-09-19T17:24:39;17.10;99.90
11818;DHT22;5966;52.402;5.322;2023-09-19T17:27:11;17.10;99.90
11818;DHT22;5966;52.402;5.322;2023-09-19T17:29:42;17.10;99.90
11818;DHT22;5966;52.402;5.322;2023-09-19T17:32:11;17.10;99.90
11818;DHT22;5966;52.402;5.322;2023-09-19T17:34:42;17.10;99.90